Lake Jacksonville, Texas
Current Conditions -  °F | °C
As of 8:55 AM on Saturday 20 Dec 2014 (Local Time) from KJSO Reporting Station
Haze Haze  
Wind Chill: 42°   Ceiling: 200
Heat Index: 46°   Visibility: 1.5mi
Dew Point: 45°   Wind: 7mph
Humidity: 99%   Direction: 60°ENE
Pressure: 30.25"   Gusts: NA
Location:  31.9649°N, 95.3036°W
Report Text: KJSO 201455Z AUTO 06006KT 1 1/2SM BR OVC002 07/07 A3025 RMK AO2 T00750073
Loading
Personal Weather Stations






























Interactive Weather Map New forecast layout! Learn more

10-Day Weather Forecast

Advertisements
Track Severe Weather on mobile